Time;durP1;ratioP1;P1;durP2;ratioP2;P2;SDS_P1;SDS_P2;PMS_P1;PMS_P2;Temp;Humidity;BMP_temperature;BMP_pressure;BME280_temperature;BME280_humidity;BME280_pressure;Samples;Min_cycle;Max_cycle;Signal;HPM_P1;HPM_P2
2022/05/01 00:02:06;;;;;;;598.57;566.23;;;8.20;99.90;;;;;;5032011;28;20574;-66
2022/05/01 00:04:32;;;;;;;557.53;527.70;;;8.10;99.90;;;;;;5051655;28;20230;-66
2022/05/01 00:06:58;;;;;;;615.60;582.33;;;8.00;99.90;;;;;;5034865;28;20186;-67
2022/05/01 00:09:24;;;;;;;577.13;546.70;;;8.00;99.90;;;;;;5047664;28;20543;-66
2022/05/01 00:11:49;;;;;;;590.90;559.87;;;8.00;99.90;;;;;;5034999;28;20630;-67
2022/05/01 00:14:15;;;;;;;605.63;573.50;;;7.90;99.90;;;;;;5052338;28;20217;-67
2022/05/01 00:16:42;;;;;;;570.70;540.13;;;7.90;99.90;;;;;;5049328;28;20282;-70
2022/05/01 00:19:11;;;;;;;520.10;492.77;;;7.90;99.90;;;;;;5044516;28;20179;-69
2022/05/01 00:21:39;;;;;;;488.80;464.00;;;7.80;99.90;;;;;;5030527;28;20210;-69
2022/05/01 00:24:06;;;;;;;503.87;477.67;;;7.70;99.90;;;;;;5017579;28;20281;-69
2022/05/01 00:26:32;;;;;;;507.00;480.80;;;7.60;99.90;;;;;;5047594;28;20193;-67
2022/05/01 00:28:58;;;;;;;480.27;455.97;;;7.60;99.90;;;;;;5034399;28;20577;-74
2022/05/01 00:31:24;;;;;;;510.90;484.23;;;7.60;99.90;;;;;;5041625;28;20647;-69
2022/05/01 00:36:34;;;;;;;459.83;436.50;;;7.60;99.90;;;;;;5030287;28;20321;-68
2022/05/01 00:39:02;;;;;;;466.57;442.77;;;7.60;99.90;;;;;;5033911;28;20240;-67
2022/05/01 00:41:32;;;;;;;490.03;464.43;;;7.50;99.90;;;;;;5044082;28;20671;-67
2022/05/01 00:44:09;;;;;;;473.70;449.83;;;7.50;99.90;;;;;;5050609;28;20647;-68
2022/05/01 00:46:44;;;;;;;384.77;365.67;;;7.50;99.90;;;;;;5039927;28;20182;-66
2022/05/01 00:49:15;;;;;;;377.37;358.63;;;7.50;99.90;;;;;;5033175;28;20526;-64
2022/05/01 00:51:52;;;;;;;358.50;340.63;;;7.50;99.90;;;;;;5032854;28;20190;-66
2022/05/01 00:54:22;;;;;;;352.47;334.70;;;7.50;99.90;;;;;;5040306;28;20318;-66
2022/05/01 00:56:49;;;;;;;355.63;338.13;;;7.50;99.90;;;;;;5043516;28;20184;-65
2022/05/01 00:59:16;;;;;;;326.93;310.47;;;7.40;99.90;;;;;;5033054;28;20182;-67
2022/05/01 01:01:43;;;;;;;378.77;359.50;;;7.40;99.90;;;;;;5032187;28;20222;-67
2022/05/01 01:04:10;;;;;;;351.43;333.83;;;7.40;99.90;;;;;;5072458;28;20245;-67
2022/05/01 01:06:36;;;;;;;372.87;354.13;;;7.40;99.90;;;;;;5039583;28;20662;-65
2022/05/01 01:09:03;;;;;;;368.63;350.10;;;7.30;99.90;;;;;;5054140;28;20190;-66
2022/05/01 01:11:29;;;;;;;328.97;311.63;;;7.20;99.90;;;;;;5041533;28;20240;-66
2022/05/01 01:13:55;;;;;;;314.37;298.70;;;7.20;99.90;;;;;;5041765;28;20187;-66
2022/05/01 01:16:21;;;;;;;296.83;281.73;;;7.20;99.90;;;;;;5044430;28;20265;-66
2022/05/01 01:18:47;;;;;;;331.57;314.07;;;7.20;99.90;;;;;;5051181;28;20194;-66
2022/05/01 01:21:13;;;;;;;306.20;290.30;;;7.30;99.90;;;;;;5035564;28;20214;-67
2022/05/01 01:23:40;;;;;;;324.10;306.97;;;7.20;99.90;;;;;;5035795;28;20187;-66
2022/05/01 01:26:08;;;;;;;329.37;312.00;;;7.10;99.90;;;;;;5035844;28;20183;-67
2022/05/01 01:28:36;;;;;;;261.70;247.27;;;7.10;99.90;;;;;;5036114;28;20179;-66
2022/05/01 01:33:55;;;;;;;275.80;260.67;;;7.10;99.90;;;;;;5034994;28;20567;-67
2022/05/01 01:36:24;;;;;;;305.90;289.67;;;7.10;99.90;;;;;;5036078;28;20201;-68
2022/05/01 01:38:50;;;;;;;291.23;275.27;;;7.10;99.90;;;;;;5068179;28;20749;-67
2022/05/01 01:41:21;;;;;;;337.17;319.63;;;7.10;99.90;;;;;;5034418;28;20210;-66
2022/05/01 01:43:48;;;;;;;311.03;294.53;;;7.10;99.90;;;;;;5035900;28;20194;-66
2022/05/01 01:46:14;;;;;;;339.47;321.47;;;7.00;99.90;;;;;;5051313;28;20184;-74
2022/05/01 01:48:40;;;;;;;259.93;246.37;;;7.10;99.90;;;;;;5054825;28;20516;-66
2022/05/01 01:51:06;;;;;;;311.40;294.33;;;7.00;99.90;;;;;;5038478;28;20193;-67
2022/05/01 01:53:34;;;;;;;307.83;291.73;;;7.00;99.90;;;;;;5034324;28;20183;-66
2022/05/01 01:56:00;;;;;;;287.83;271.80;;;7.00;99.90;;;;;;5048109;28;20186;-66
2022/05/01 01:58:27;;;;;;;319.47;301.87;;;6.90;99.90;;;;;;5035598;28;20544;-76
2022/05/01 02:00:53;;;;;;;285.23;269.80;;;6.90;99.90;;;;;;5052666;28;20576;-66
2022/05/01 02:03:19;;;;;;;294.60;278.70;;;6.90;99.90;;;;;;5042168;28;20185;-66
2022/05/01 02:05:46;;;;;;;305.90;289.13;;;6.80;99.90;;;;;;5042420;28;20244;-66
2022/05/01 02:08:13;;;;;;;308.87;291.63;;;6.90;99.90;;;;;;5035462;28;20264;-66
2022/05/01 02:10:39;;;;;;;286.00;270.33;;;6.80;99.90;;;;;;5035368;28;20190;-66
2022/05/01 02:13:05;;;;;;;309.60;292.83;;;6.80;99.90;;;;;;5048730;28;20190;-67
2022/05/01 02:15:32;;;;;;;309.80;292.73;;;6.80;99.90;;;;;;5050954;28;20178;-66
2022/05/01 02:17:59;;;;;;;308.30;291.30;;;6.80;99.90;;;;;;5038755;28;20627;-66
2022/05/01 02:20:26;;;;;;;307.63;290.93;;;6.70;99.90;;;;;;5054040;28;20209;-67
2022/05/01 02:22:55;;;;;;;335.07;316.37;;;6.70;99.90;;;;;;5042971;28;20256;-66
2022/05/01 02:25:21;;;;;;;313.83;296.50;;;6.70;99.90;;;;;;5045625;28;20269;-65
2022/05/01 02:27:47;;;;;;;319.43;302.13;;;6.70;99.90;;;;;;5034349;28;20258;-65
2022/05/01 02:30:13;;;;;;;324.10;306.57;;;6.60;99.90;;;;;;5066644;28;20214;-66
2022/05/01 02:32:39;;;;;;;332.03;314.10;;;6.60;99.90;;;;;;5035120;28;20640;-66
2022/05/01 02:35:07;;;;;;;315.03;297.77;;;6.60;99.90;;;;;;5066405;28;20278;-66
2022/05/01 02:37:32;;;;;;;369.20;349.37;;;6.60;99.90;;;;;;5034401;28;20198;-66
2022/05/01 02:39:58;;;;;;;375.83;355.53;;;6.60;99.90;;;;;;5044361;28;20186;-67
2022/05/01 02:42:24;;;;;;;427.30;404.33;;;6.60;99.90;;;;;;5045826;28;20179;-71
2022/05/01 02:44:50;;;;;;;417.40;394.80;;;6.50;99.90;;;;;;5033556;28;20636;-66
2022/05/01 02:47:16;;;;;;;424.73;402.17;;;6.50;99.90;;;;;;5065863;28;20198;-66
2022/05/01 02:49:43;;;;;;;451.47;427.17;;;6.40;99.90;;;;;;5033024;28;20187;-66
2022/05/01 02:52:09;;;;;;;424.07;401.83;;;6.40;99.90;;;;;;5033577;28;20190;-66
2022/05/01 02:54:35;;;;;;;496.53;470.03;;;6.40;99.90;;;;;;5032974;28;20182;-66
2022/05/01 02:57:01;;;;;;;474.30;448.63;;;6.30;99.90;;;;;;5034213;28;20183;-66
2022/05/01 02:59:27;;;;;;;467.73;442.23;;;6.30;99.90;;;;;;5034704;28;20193;-66
2022/05/01 03:01:55;;;;;;;478.47;452.97;;;6.30;99.90;;;;;;5038040;28;20210;-66
2022/05/01 03:04:21;;;;;;;514.17;486.60;;;6.40;99.90;;;;;;5034445;28;20257;-66
2022/05/01 03:06:47;;;;;;;523.50;494.57;;;6.40;99.90;;;;;;5045611;28;20221;-66
2022/05/01 03:09:13;;;;;;;508.60;481.20;;;6.30;99.90;;;;;;5049491;28;20186;-66
2022/05/01 03:11:38;;;;;;;498.10;470.50;;;6.30;99.90;;;;;;5032788;28;20240;-66
2022/05/01 03:14:04;;;;;;;501.73;474.83;;;6.30;99.90;;;;;;5051493;28;20678;-66
2022/05/01 03:16:30;;;;;;;540.57;511.07;;;6.30;99.90;;;;;;5038011;28;20186;-65
2022/05/01 03:24:25;;;;;;;810.93;762.03;;;6.30;99.90;;;;;;5033614;28;20193;-66
2022/05/01 03:26:51;;;;;;;815.73;766.60;;;6.30;99.90;;;;;;5038529;28;20186;-66
2022/05/01 03:29:17;;;;;;;798.10;751.00;;;6.20;99.90;;;;;;5051421;28;20205;-66
2022/05/01 03:31:45;;;;;;;834.80;784.10;;;6.20;99.90;;;;;;5040533;28;20197;-66
2022/05/01 03:34:11;;;;;;;841.23;789.83;;;6.10;99.90;;;;;;5033936;28;20643;-66
2022/05/01 03:36:37;;;;;;;872.33;818.03;;;6.20;99.90;;;;;;5044203;28;20221;-66
2022/05/01 03:39:05;;;;;;;1022.30;953.53;;;6.00;99.90;;;;;;5047753;28;20206;-65
2022/05/01 03:41:31;;;;;;;1035.10;965.13;;;6.10;99.90;;;;;;5077087;28;20293;-66
2022/05/01 03:43:56;;;;;;;1031.37;961.67;;;6.10;99.90;;;;;;5036420;28;20195;-66
2022/05/01 03:46:23;;;;;;;1029.87;960.07;;;6.10;99.90;;;;;;5047265;28;20220;-66
2022/05/01 03:48:50;;;;;;;1048.03;976.53;;;6.10;99.90;;;;;;5039636;28;20182;-65
2022/05/01 03:51:15;;;;;;;1054.33;981.93;;;6.10;99.90;;;;;;5051401;28;20635;-65
2022/05/01 03:53:42;;;;;;;1050.77;978.33;;;6.00;99.90;;;;;;5045382;28;20194;-66
2022/05/01 03:56:08;;;;;;;1055.07;981.97;;;5.90;99.90;;;;;;5032552;28;20186;-65
2022/05/01 03:58:34;;;;;;;1065.93;991.97;;;5.90;99.90;;;;;;5033631;28;20273;-65
2022/05/01 04:01:00;;;;;;;1065.67;991.80;;;6.00;99.90;;;;;;5032038;28;20225;-66
2022/05/01 04:03:26;;;;;;;1065.43;991.43;;;5.90;99.90;;;;;;5032198;28;20628;-67
2022/05/01 04:05:52;;;;;;;1071.87;997.47;;;5.90;99.90;;;;;;5032502;28;20182;-65
2022/05/01 04:08:18;;;;;;;1072.87;998.10;;;5.80;99.90;;;;;;5033122;28;20182;-69
2022/05/01 04:10:46;;;;;;;1072.43;997.40;;;5.80;99.90;;;;;;5033309;28;20179;-66
2022/05/01 04:13:12;;;;;;;1074.77;999.50;;;5.80;99.90;;;;;;5033096;28;20181;-66
2022/05/01 04:15:39;;;;;;;1081.93;999.90;;;5.70;99.90;;;;;;5037080;28;20182;-66
2022/05/01 04:18:05;;;;;;;1081.03;999.90;;;5.80;99.90;;;;;;5031069;28;20193;-66
2022/05/01 04:20:32;;;;;;;1086.03;999.90;;;5.80;99.90;;;;;;5031965;28;20229;-66
2022/05/01 04:22:58;;;;;;;1096.37;999.90;;;5.80;99.90;;;;;;5031954;28;20552;-65
2022/05/01 04:25:26;;;;;;;1100.17;999.90;;;5.80;99.90;;;;;;5033191;28;20187;-66
2022/05/01 04:28:04;;;;;;;1106.40;999.90;;;5.80;99.90;;;;;;5033126;28;20225;-65
2022/05/01 04:30:31;;;;;;;1104.40;999.90;;;5.80;99.90;;;;;;5033452;28;20604;-66
2022/05/01 04:33:08;;;;;;;1107.47;999.90;;;5.80;99.90;;;;;;5036239;28;20635;-65
2022/05/01 04:35:40;;;;;;;1105.00;999.90;;;5.80;99.90;;;;;;5044845;28;20179;-66
2022/05/01 04:38:08;;;;;;;1109.30;999.90;;;5.90;99.90;;;;;;5033003;28;20609;-65
2022/05/01 04:40:46;;;;;;;1110.50;999.90;;;5.90;99.90;;;;;;5036894;28;20202;-66
2022/05/01 04:43:13;;;;;;;1109.43;999.90;;;5.90;99.90;;;;;;5042299;28;20218;-65
2022/05/01 04:45:41;;;;;;;1110.77;999.90;;;6.00;99.90;;;;;;5036176;28;20193;-66
2022/05/01 04:48:09;;;;;;;1112.47;999.90;;;6.00;99.90;;;;;;5036394;28;20225;-67
2022/05/01 04:50:35;;;;;;;1116.13;999.90;;;6.00;99.90;;;;;;5030538;28;20713;-66
2022/05/01 04:53:06;;;;;;;1078.23;999.33;;;6.20;99.90;;;;;;5036477;28;20644;-66
2022/05/01 04:55:32;;;;;;;1064.03;990.23;;;6.30;99.90;;;;;;5036672;28;20187;-68
2022/05/01 04:57:59;;;;;;;1059.43;985.97;;;6.40;99.90;;;;;;5037198;28;20614;-66
2022/05/01 05:00:25;;;;;;;1054.93;982.17;;;6.20;99.90;;;;;;5036400;28;20225;-66
2022/05/01 05:02:52;;;;;;;1047.03;975.23;;;6.40;99.90;;;;;;5036834;28;20183;-66
2022/05/01 05:05:19;;;;;;;1034.27;963.80;;;6.40;99.90;;;;;;5036787;28;20528;-66
2022/05/01 05:07:46;;;;;;;1020.10;951.90;;;6.50;99.90;;;;;;5048014;28;20320;-66
2022/05/01 05:10:12;;;;;;;1010.03;942.60;;;6.70;99.90;;;;;;5043179;28;20189;-65
2022/05/01 05:12:42;;;;;;;983.57;919.07;;;6.80;99.90;;;;;;5054260;28;20186;-65
2022/05/01 05:15:15;;;;;;;979.73;915.97;;;6.90;99.90;;;;;;5042249;28;20195;-66
2022/05/01 05:17:41;;;;;;;969.40;906.63;;;6.90;99.90;;;;;;5036479;28;20313;-66
2022/05/01 05:20:09;;;;;;;942.20;882.30;;;7.20;99.90;;;;;;5036515;28;20190;-66
2022/05/01 05:22:35;;;;;;;950.17;888.97;;;7.30;99.90;;;;;;5050170;28;20570;-66
2022/05/01 05:25:02;;;;;;;940.73;879.97;;;7.30;99.90;;;;;;5040860;28;20260;-66
2022/05/01 05:27:28;;;;;;;907.37;850.40;;;7.50;99.90;;;;;;5035708;28;20174;-66
2022/05/01 05:29:55;;;;;;;889.50;834.17;;;7.50;99.90;;;;;;5036519;28;20586;-66
2022/05/01 05:32:22;;;;;;;912.97;855.77;;;7.40;99.90;;;;;;5067686;28;20183;-66
2022/05/01 05:34:48;;;;;;;908.50;851.23;;;7.40;99.90;;;;;;5035538;28;20209;-66
2022/05/01 05:37:15;;;;;;;918.83;860.97;;;7.60;99.90;;;;;;5042245;28;20209;-66
2022/05/01 05:39:41;;;;;;;924.60;866.17;;;7.60;99.90;;;;;;5042673;28;20685;-65
2022/05/01 05:42:07;;;;;;;920.40;862.33;;;7.70;99.90;;;;;;5054110;28;20234;-66
2022/05/01 05:44:33;;;;;;;905.53;848.80;;;7.80;99.90;;;;;;5046890;28;20647;-65
2022/05/01 05:46:59;;;;;;;912.70;855.20;;;8.00;99.90;;;;;;5035654;28;20226;-65
2022/05/01 05:49:24;;;;;;;914.77;856.83;;;8.20;99.90;;;;;;5041589;28;20599;-65
2022/05/01 05:51:50;;;;;;;904.40;847.83;;;8.30;99.90;;;;;;5081246;28;20186;-65
2022/05/01 05:54:15;;;;;;;890.37;834.50;;;8.50;99.90;;;;;;5036997;28;20182;-65
2022/05/01 05:56:41;;;;;;;880.43;825.57;;;8.50;99.90;;;;;;5044489;28;20214;-66
2022/05/01 05:59:07;;;;;;;916.73;858.20;;;8.80;99.90;;;;;;5035664;28;20179;-66
2022/05/01 06:01:33;;;;;;;985.53;920.10;;;9.00;99.90;;;;;;5039397;28;20210;-65
2022/05/01 06:03:59;;;;;;;981.93;917.37;;;9.10;99.90;;;;;;5034643;28;20221;-67
2022/05/01 06:06:25;;;;;;;989.33;923.43;;;9.20;99.90;;;;;;5043017;28;20185;-67
2022/05/01 06:08:50;;;;;;;991.60;925.70;;;9.20;99.90;;;;;;5045991;28;20193;-66
2022/05/01 06:11:16;;;;;;;1011.77;943.20;;;9.30;99.90;;;;;;5054025;28;20194;-67
2022/05/01 06:13:42;;;;;;;1021.50;952.40;;;9.30;99.90;;;;;;5052521;28;20182;-68
2022/05/01 06:16:07;;;;;;;1020.60;951.27;;;9.40;99.90;;;;;;5045764;28;20265;-68
2022/05/01 06:18:33;;;;;;;1016.90;948.00;;;9.30;99.90;;;;;;5034990;28;20216;-68
2022/05/01 06:20:59;;;;;;;1018.67;950.17;;;9.60;99.90;;;;;;5033805;28;20282;-68
2022/05/01 06:23:24;;;;;;;1022.33;952.80;;;9.70;99.90;;;;;;5034926;28;20187;-68
2022/05/01 06:25:50;;;;;;;1041.33;969.97;;;9.70;99.90;;;;;;5033137;28;20539;-69
2022/05/01 06:28:16;;;;;;;1042.77;971.57;;;9.70;99.90;;;;;;5035194;28;20198;-69
2022/05/01 06:30:44;;;;;;;1039.67;968.27;;;9.80;99.90;;;;;;5035179;28;20194;-69
2022/05/01 06:33:13;;;;;;;1046.93;975.23;;;10.00;99.90;;;;;;5034512;28;20174;-70
2022/05/01 06:35:39;;;;;;;1046.97;975.07;;;10.30;99.90;;;;;;5034861;28;20261;-70
2022/05/01 06:38:07;;;;;;;1039.57;968.10;;;10.50;99.90;;;;;;5046040;28;20285;-69
2022/05/01 06:40:33;;;;;;;1039.60;968.50;;;10.50;99.90;;;;;;5046403;28;20300;-68
2022/05/01 06:42:59;;;;;;;1033.63;963.27;;;10.70;99.90;;;;;;5040860;28;20278;-68
2022/05/01 06:45:25;;;;;;;1030.73;961.30;;;10.90;99.90;;;;;;5061937;28;20526;-67
2022/05/01 06:47:51;;;;;;;1029.10;959.63;;;11.00;99.90;;;;;;5048125;28;20189;-67
2022/05/01 06:50:16;;;;;;;1015.78;947.55;;;11.10;99.90;;;;;;5053059;28;20233;-66
2022/05/01 06:52:42;;;;;;;1012.17;944.45;;;11.30;99.90;;;;;;5053042;28;20519;-66
2022/05/01 06:55:09;;;;;;;1005.10;938.20;;;11.20;99.90;;;;;;5047360;28;20587;-67
2022/05/01 06:57:35;;;;;;;1002.83;935.97;;;11.30;99.90;;;;;;5043275;28;20713;-67
2022/05/01 07:00:00;;;;;;;995.95;930.33;;;11.50;99.90;;;;;;5052404;28;20226;-68
2022/05/01 07:02:26;;;;;;;988.78;923.30;;;11.70;99.90;;;;;;5055538;28;20252;-68
2022/05/01 07:04:52;;;;;;;981.85;917.45;;;11.90;99.90;;;;;;5046180;28;20189;-71
2022/05/01 07:07:18;;;;;;;970.83;907.55;;;11.70;99.90;;;;;;5048462;28;20682;-70
2022/05/01 07:09:44;;;;;;;975.83;911.88;;;11.90;99.90;;;;;;5051578;28;20196;-70
2022/05/01 07:12:11;;;;;;;965.03;902.08;;;12.30;99.90;;;;;;5043094;28;20189;-69
2022/05/01 07:14:40;;;;;;;964.95;902.38;;;12.60;99.90;;;;;;5062302;28;20183;-69
2022/05/01 07:17:05;;;;;;;921.45;862.85;;;12.70;99.90;;;;;;5048929;28;20220;-67
2022/05/01 07:19:31;;;;;;;916.55;858.72;;;12.80;99.90;;;;;;5059412;28;20174;-69
2022/05/01 07:21:57;;;;;;;898.63;842.35;;;12.70;99.90;;;;;;5051664;28;20721;-68
2022/05/01 07:24:23;;;;;;;892.60;836.42;;;12.60;99.90;;;;;;5038012;28;20223;-76
2022/05/01 07:26:49;;;;;;;880.47;826.10;;;12.80;99.90;;;;;;5048372;28;20194;-69
2022/05/01 07:29:14;;;;;;;854.55;802.30;;;13.00;99.90;;;;;;5032514;28;20186;-70
2022/05/01 07:31:42;;;;;;;865.45;812.03;;;13.10;99.90;;;;;;5043287;28;20552;-70
2022/05/01 07:34:09;;;;;;;860.50;808.05;;;13.80;99.90;;;;;;5033345;28;20187;-70
2022/05/01 07:36:35;;;;;;;828.08;778.17;;;15.30;99.90;;;;;;5026300;28;20175;-71
2022/05/01 07:39:01;;;;;;;684.42;648.60;;;16.90;99.90;;;;;;5044777;28;20278;-72
2022/05/01 07:41:27;;;;;;;486.55;464.02;;;17.90;99.90;;;;;;5032205;28;20285;-71
2022/05/01 07:43:55;;;;;;;198.10;186.70;;;18.70;99.90;;;;;;5031934;28;20244;-72
2022/05/01 07:46:22;;;;;;;205.60;193.80;;;18.30;99.90;;;;;;5031826;28;20187;-71
2022/05/01 07:48:48;;;;;;;621.40;587.47;;;17.80;99.90;;;;;;5033226;28;20179;-71
2022/05/01 07:51:17;;;;;;;447.98;424.25;;;19.00;99.90;;;;;;5033250;28;20742;-71
2022/05/01 07:53:42;;;;;;;480.55;455.13;;;19.60;99.90;;;;;;5032878;28;20265;-72
2022/05/01 07:56:11;;;;;;;535.58;507.23;;;19.90;99.90;;;;;;5038426;28;20253;-66
2022/05/01 07:58:36;;;;;;;629.58;595.47;;;19.90;99.90;;;;;;5037370;28;20668;-68
2022/05/01 08:01:03;;;;;;;704.90;666.13;;;19.80;99.90;;;;;;5035207;28;20226;-70
2022/05/01 08:06:14;;;;;;;732.35;692.30;;;19.10;99.90;;;;;;5045274;28;20233;-71
2022/05/01 08:08:41;;;;;;;635.10;601.40;;;19.30;99.90;;;;;;5033342;28;20190;-71
2022/05/01 08:11:08;;;;;;;844.13;794.25;;;19.80;99.90;;;;;;5032692;28;20199;-70
2022/05/01 08:13:34;;;;;;;741.78;700.70;;;20.10;99.90;;;;;;5033391;28;20209;-71
2022/05/01 08:16:00;;;;;;;713.30;674.83;;;19.70;99.90;;;;;;5031869;28;20170;-71
2022/05/01 08:21:13;;;;;;;704.65;667.05;;;18.80;99.90;;;;;;5036892;28;20575;-71
2022/05/01 08:23:40;;;;;;;618.17;587.45;;;18.70;99.90;;;;;;5068817;28;20182;-71
2022/05/01 08:26:07;;;;;;;653.05;620.25;;;18.80;99.90;;;;;;5037259;28;20193;-70
2022/05/01 08:28:37;;;;;;;736.33;696.92;;;19.60;99.90;;;;;;5036973;28;20178;-71
2022/05/01 08:31:05;;;;;;;695.47;658.72;;;21.00;99.90;;;;;;5039049;28;20187;-71
2022/05/01 08:33:31;;;;;;;704.25;666.97;;;21.50;99.90;;;;;;5038628;28;20181;-72
2022/05/01 08:35:57;;;;;;;774.28;731.00;;;21.60;99.90;;;;;;5037158;28;20266;-71
2022/05/01 08:38:23;;;;;;;781.78;738.05;;;22.40;99.90;;;;;;5069247;28;20601;-70
2022/05/01 08:40:50;;;;;;;807.78;761.13;;;23.10;99.90;;;;;;5035289;28;20288;-71
2022/05/01 08:43:18;;;;;;;828.42;780.40;;;23.10;99.90;;;;;;5036554;28;20286;-71
2022/05/01 08:45:53;;;;;;;806.25;759.90;;;23.00;99.90;;;;;;5037146;28;20213;-71
2022/05/01 08:48:56;;;;;;;892.63;837.35;;;23.80;99.90;;;;;;5068862;28;20232;-71
2022/05/01 08:51:23;;;;;;;934.00;874.85;;;23.80;99.90;;;;;;5036602;28;20190;-71
2022/05/01 08:53:50;;;;;;;963.90;901.83;;;24.10;99.90;;;;;;5043609;28;20712;-73
2022/05/01 08:56:21;;;;;;;986.08;921.35;;;24.50;99.90;;;;;;5044860;28;20187;-71
2022/05/01 08:58:47;;;;;;;1003.10;937.20;;;23.40;99.90;;;;;;5036655;28;20193;-71
2022/05/01 09:01:14;;;;;;;1007.40;940.83;;;23.10;99.90;;;;;;5035888;28;20215;-71
2022/05/01 09:03:43;;;;;;;947.17;886.83;;;22.50;99.90;;;;;;5042227;28;20188;-70
2022/05/01 09:06:13;;;;;;;817.75;770.78;;;20.70;99.90;;;;;;5027559;28;20179;-72
2022/05/01 09:08:40;;;;;;;820.33;773.33;;;19.40;99.90;;;;;;5054792;28;20166;-70
2022/05/01 09:13:51;;;;;;;797.25;752.33;;;19.30;99.90;;;;;;5036462;28;20236;-71
2022/05/01 09:16:17;;;;;;;759.10;717.72;;;18.90;99.90;;;;;;5044093;28;20178;-70
2022/05/01 09:18:45;;;;;;;703.50;667.70;;;18.60;99.90;;;;;;5043583;28;20197;-71
2022/05/01 09:21:11;;;;;;;705.08;669.20;;;18.50;99.90;;;;;;5050909;28;20560;-70
2022/05/01 09:23:46;;;;;;;587.13;560.42;;;18.40;99.90;;;;;;5034889;28;20222;-71
2022/05/01 09:26:14;;;;;;;555.78;531.20;;;18.10;99.90;;;;;;5044052;28;20230;-71
2022/05/01 09:28:55;;;;;;;490.27;469.75;;;18.30;99.90;;;;;;5035030;28;20183;-71
2022/05/01 09:31:45;;;;;;;400.63;384.90;;;17.40;99.90;;;;;;5034491;28;20540;-71
2022/05/01 09:34:25;;;;;;;236.25;227.02;;;16.80;99.90;;;;;;5032270;28;20278;-71
2022/05/01 09:36:51;;;;;;;251.77;242.02;;;16.70;99.90;;;;;;5034303;28;20183;-71
2022/05/01 09:39:28;;;;;;;183.63;176.63;;;16.80;99.90;;;;;;5081746;28;20222;-71
2022/05/01 09:41:55;;;;;;;156.50;150.50;;;17.00;99.90;;;;;;5039608;28;20218;-73
2022/05/01 09:44:22;;;;;;;130.02;125.15;;;16.80;99.90;;;;;;5034425;28;20217;-72
2022/05/01 09:46:50;;;;;;;100.97;97.05;;;17.10;99.90;;;;;;5042511;28;20193;-72
2022/05/01 09:49:17;;;;;;;123.70;118.82;;;17.00;99.90;;;;;;5049280;28;20175;-71
2022/05/01 09:52:01;;;;;;;138.85;133.43;;;17.50;99.90;;;;;;5040201;28;20190;-71
2022/05/01 09:54:27;;;;;;;110.10;105.60;;;17.90;99.90;;;;;;5039857;28;20186;-71
2022/05/01 09:57:00;;;;;;;133.13;128.00;;;18.10;99.90;;;;;;5035286;28;20182;-71
2022/05/01 09:59:28;;;;;;;110.43;105.97;;;18.20;99.90;;;;;;5035094;28;20210;-70
2022/05/01 10:01:55;;;;;;;117.97;113.30;;;17.40;99.90;;;;;;5035392;28;20549;-70
2022/05/01 10:04:23;;;;;;;110.45;105.95;;;17.50;99.90;;;;;;5034407;28;20220;-71
2022/05/01 10:06:52;;;;;;;86.22;82.70;;;17.40;99.90;;;;;;5035108;28;20182;-71
2022/05/01 10:09:19;;;;;;;91.18;87.22;;;17.60;99.90;;;;;;5039423;28;20213;-70
2022/05/01 10:11:47;;;;;;;75.45;71.95;;;17.40;99.90;;;;;;5034964;28;20201;-71
2022/05/01 10:14:12;;;;;;;86.75;83.43;;;17.40;99.90;;;;;;5047646;28;20190;-72
2022/05/01 10:16:40;;;;;;;151.88;146.07;;;17.60;99.90;;;;;;5039878;28;20191;-71
2022/05/01 10:19:06;;;;;;;137.05;131.57;;;17.90;99.90;;;;;;5030251;28;20178;-71
2022/05/01 10:21:34;;;;;;;127.10;122.00;;;17.70;99.90;;;;;;5042899;28;20207;-71
2022/05/01 10:24:02;;;;;;;86.93;83.35;;;17.20;99.90;;;;;;5049995;28;20208;-75
2022/05/01 10:26:37;;;;;;;70.18;67.28;;;16.20;99.90;;;;;;5049440;28;20182;-71
2022/05/01 10:29:21;;;;;;;63.38;60.58;;;16.20;99.90;;;;;;5052334;28;20185;-71
2022/05/01 10:32:22;;;;;;;80.18;76.88;;;16.70;99.90;;;;;;5033855;28;20651;-71
2022/05/01 10:35:08;;;;;;;65.78;63.20;;;17.10;99.90;;;;;;5041857;28;20602;-71
2022/05/01 10:37:52;;;;;;;74.07;71.03;;;17.40;99.90;;;;;;5034902;28;20269;-71
2022/05/01 10:40:18;;;;;;;123.75;118.97;;;18.00;99.90;;;;;;5041011;28;20179;-71
2022/05/01 10:42:47;;;;;;;97.05;93.00;;;18.40;99.90;;;;;;5048380;28;20248;-71
2022/05/01 10:45:21;;;;;;;95.50;91.90;;;18.30;99.90;;;;;;5047274;28;20232;-71
2022/05/01 10:47:55;;;;;;;95.18;91.53;;;18.00;99.90;;;;;;5034553;28;20182;-72
2022/05/01 10:50:23;;;;;;;94.65;91.00;;;18.20;99.90;;;;;;5034611;28;20179;-72
2022/05/01 10:53:16;;;;;;;143.45;137.90;;;18.30;99.90;;;;;;5047591;28;20187;-72
2022/05/01 10:55:52;;;;;;;75.70;72.55;;;17.60;99.90;;;;;;5033268;28;20183;-71
2022/05/01 10:58:30;;;;;;;98.03;94.00;;;17.10;99.90;;;;;;5046685;28;20177;-71
2022/05/01 11:00:57;;;;;;;83.72;80.20;;;17.20;99.90;;;;;;5052171;28;20210;-71
2022/05/01 11:03:26;;;;;;;112.75;108.15;;;17.20;99.90;;;;;;5052292;28;20196;-72
2022/05/01 11:05:59;;;;;;;56.45;54.05;;;17.00;99.90;;;;;;5049489;28;20182;-71
2022/05/01 11:08:27;;;;;;;60.05;57.22;;;16.40;99.90;;;;;;5033678;28;20167;-71
2022/05/01 11:10:58;;;;;;;62.92;59.90;;;16.60;99.90;;;;;;5052168;28;20202;-70
2022/05/01 11:13:31;;;;;;;63.63;60.85;;;16.40;99.90;;;;;;5033354;28;20183;-71
2022/05/01 11:15:58;;;;;;;144.45;138.63;;;15.80;99.90;;;;;;5029628;28;20186;-71
2022/05/01 11:18:34;;;;;;;76.30;73.32;;;16.00;99.90;;;;;;5033866;28;20210;-71
2022/05/01 11:21:21;;;;;;;61.78;59.03;;;16.50;99.90;;;;;;5033452;28;20626;-72
2022/05/01 11:23:58;;;;;;;52.17;49.38;;;17.20;99.90;;;;;;5065833;28;20205;-71
2022/05/01 11:26:24;;;;;;;57.70;54.58;;;17.10;99.90;;;;;;5033836;28;20246;-71
2022/05/01 11:29:08;;;;;;;54.20;51.80;;;17.20;99.90;;;;;;5051078;28;20182;-71
2022/05/01 11:31:37;;;;;;;56.50;53.97;;;17.60;99.90;;;;;;5032686;28;20187;-71
2022/05/01 11:34:32;;;;;;;57.90;55.25;;;17.60;99.90;;;;;;5033665;28;20205;-71
2022/05/01 11:37:01;;;;;;;61.45;58.67;;;18.00;99.90;;;;;;5037410;28;20199;-71
2022/05/01 11:39:46;;;;;;;60.78;58.28;;;18.20;99.90;;;;;;5034032;28;20186;-71
2022/05/01 11:42:26;;;;;;;54.25;51.95;;;18.30;99.90;;;;;;5033796;28;20248;-72
2022/05/01 11:45:00;;;;;;;48.53;46.13;;;18.30;99.90;;;;;;5033088;28;20674;-71
2022/05/01 11:47:27;;;;;;;57.53;54.95;;;18.40;99.90;;;;;;5033892;28;20179;-72
2022/05/01 11:49:53;;;;;;;58.53;55.97;;;18.60;99.90;;;;;;5033737;28;20193;-72
2022/05/01 11:52:22;;;;;;;66.40;63.53;;;18.30;99.90;;;;;;5015542;28;20638;-72
2022/05/01 11:55:06;;;;;;;46.65;44.53;;;18.30;99.90;;;;;;5051979;28;20190;-72
2022/05/01 12:03:06;;;;;;;51.38;48.83;;;17.70;99.90;;;;;;5048894;28;20272;-72
2022/05/01 12:05:45;;;;;;;57.42;54.67;;;18.10;99.90;;;;;;5034043;28;20175;-74
2022/05/01 12:08:20;;;;;;;58.80;56.28;;;18.20;99.90;;;;;;5032498;28;20178;-71
2022/05/01 12:10:46;;;;;;;46.33;44.03;;;18.00;99.90;;;;;;5033234;28;20178;-71
2022/05/01 12:13:32;;;;;;;55.53;53.28;;;17.50;99.90;;;;;;5033632;28;20265;-71
2022/05/01 12:15:57;;;;;;;46.95;44.90;;;17.40;99.90;;;;;;5045983;28;20187;-71
2022/05/01 12:18:23;;;;;;;58.25;55.78;;;17.30;99.90;;;;;;5031866;28;20233;-72
2022/05/01 12:20:49;;;;;;;86.05;82.55;;;17.00;99.90;;;;;;5031694;28;20214;-72
2022/05/01 12:23:20;;;;;;;62.83;60.25;;;16.80;99.90;;;;;;5040470;28;20595;-72
2022/05/01 12:25:50;;;;;;;63.60;60.95;;;17.20;99.90;;;;;;5033004;28;20190;-72
2022/05/01 12:28:18;;;;;;;53.08;50.58;;;17.70;99.90;;;;;;5033027;28;20210;-71
2022/05/01 12:30:48;;;;;;;111.38;106.90;;;17.60;99.90;;;;;;5032118;28;20205;-71
2022/05/01 12:33:19;;;;;;;54.80;52.35;;;17.00;99.90;;;;;;5032769;28;20536;-71
2022/05/01 12:35:55;;;;;;;70.82;68.00;;;17.30;99.90;;;;;;5032384;28;20240;-74
2022/05/01 12:38:22;;;;;;;55.83;53.35;;;17.70;99.90;;;;;;5031651;28;20636;-71
2022/05/01 12:43:51;;;;;;;72.40;69.47;;;17.60;99.90;;;;;;5051078;28;20220;-71
2022/05/01 12:46:27;;;;;;;64.43;61.63;;;17.50;99.90;;;;;;5049717;28;20186;-71
2022/05/01 12:48:53;;;;;;;54.10;51.70;;;17.70;99.90;;;;;;5035256;28;20209;-71